sensor_id;sensor_type;location;lat;lon;timestamp;pressure;altitude;pressure_sealevel;temperature;humidity
50342;BME280;76053;42.682;23.286;2024-03-08T00:00:18;94840.09;;;17.54;52.36
50342;BME280;76053;42.682;23.286;2024-03-08T00:03:18;94846.28;;;17.55;52.50
50342;BME280;76053;42.682;23.286;2024-03-08T00:06:18;94839.31;;;17.54;52.25
50342;BME280;76053;42.682;23.286;2024-03-08T00:09:19;94842.81;;;17.54;52.34
50342;BME280;76053;42.682;23.286;2024-03-08T00:12:19;94841.22;;;17.53;52.21
50342;BME280;76053;42.682;23.286;2024-03-08T00:15:20;94843.94;;;17.53;52.15
50342;BME280;76053;42.682;23.286;2024-03-08T00:18:20;94827.34;;;17.51;52.02
50342;BME280;76053;42.682;23.286;2024-03-08T00:21:20;94839.69;;;17.52;52.08
50342;BME280;76053;42.682;23.286;2024-03-08T00:24:21;94835.44;;;17.51;52.03
50342;BME280;76053;42.682;23.286;2024-03-08T00:27:21;94838.16;;;17.51;51.91
50342;BME280;76053;42.682;23.286;2024-03-08T00:30:22;94835.44;;;17.51;52.04
50342;BME280;76053;42.682;23.286;2024-03-08T00:33:23;94831.19;;;17.50;52.11
50342;BME280;76053;42.682;23.286;2024-03-08T00:36:24;94827.34;;;17.51;51.95
50342;BME280;76053;42.682;23.286;2024-03-08T00:39:24;94830.41;;;17.50;51.94
50342;BME280;76053;42.682;23.286;2024-03-08T00:42:24;94826.56;;;17.51;51.91
50342;BME280;76053;42.682;23.286;2024-03-08T00:45:25;94821.50;;;17.49;51.87
50342;BME280;76053;42.682;23.286;2024-03-08T00:48:25;94818.81;;;17.49;52.07
50342;BME280;76053;42.682;23.286;2024-03-08T00:51:25;94812.25;;;17.50;51.99
50342;BME280;76053;42.682;23.286;2024-03-08T00:54:26;94818.09;;;17.52;52.00
50342;BME280;76053;42.682;23.286;2024-03-08T00:57:26;94806.06;;;17.50;51.79
50342;BME280;76053;42.682;23.286;2024-03-08T01:00:27;94803.38;;;17.50;51.88
50342;BME280;76053;42.682;23.286;2024-03-08T01:03:27;94804.16;;;17.50;51.87
50342;BME280;76053;42.682;23.286;2024-03-08T01:06:27;94804.94;;;17.51;51.76
50342;BME280;76053;42.682;23.286;2024-03-08T01:09:28;94806.84;;;17.50;51.90
50342;BME280;76053;42.682;23.286;2024-03-08T01:12:28;94799.09;;;17.49;51.94
50342;BME280;76053;42.682;23.286;2024-03-08T01:15:29;94801.44;;;17.50;51.87
50342;BME280;76053;42.682;23.286;2024-03-08T01:18:30;94800.66;;;17.50;51.88
50342;BME280;76053;42.682;23.286;2024-03-08T01:21:30;94806.84;;;17.50;52.02
50342;BME280;76053;42.682;23.286;2024-03-08T01:24:30;94794.47;;;17.49;51.76
50342;BME280;76053;42.682;23.286;2024-03-08T01:27:31;94788.31;;;17.49;51.95
50342;BME280;76053;42.682;23.286;2024-03-08T01:30:31;94791.78;;;17.49;51.78
50342;BME280;76053;42.682;23.286;2024-03-08T01:33:32;94782.91;;;17.49;51.97
50342;BME280;76053;42.682;23.286;2024-03-08T01:36:32;94783.69;;;17.49;52.16
50342;BME280;76053;42.682;23.286;2024-03-08T01:39:32;94779.81;;;17.47;51.89
50342;BME280;76053;42.682;23.286;2024-03-08T01:42:33;94779.44;;;17.48;51.97
50342;BME280;76053;42.682;23.286;2024-03-08T01:45:33;94772.47;;;17.47;51.82
50342;BME280;76053;42.682;23.286;2024-03-08T01:48:34;94777.88;;;17.47;51.82
50342;BME280;76053;42.682;23.286;2024-03-08T01:51:34;94773.63;;;17.46;51.96
50342;BME280;76053;42.682;23.286;2024-03-08T01:54:35;94776.31;;;17.46;51.88
50342;BME280;76053;42.682;23.286;2024-03-08T01:57:36;94778.25;;;17.46;51.70
50342;BME280;76053;42.682;23.286;2024-03-08T02:00:38;94776.69;;;17.45;51.95
50342;BME280;76053;42.682;23.286;2024-03-08T02:03:40;94773.59;;;17.43;51.86
50342;BME280;76053;42.682;23.286;2024-03-08T02:06:40;94767.00;;;17.44;51.82
50342;BME280;76053;42.682;23.286;2024-03-08T02:09:41;94773.59;;;17.43;51.91
50342;BME280;76053;42.682;23.286;2024-03-08T02:12:41;94777.44;;;17.42;51.81
50342;BME280;76053;42.682;23.286;2024-03-08T02:15:56;94772.00;;;17.38;51.79
50342;BME280;76053;42.682;23.286;2024-03-08T02:18:56;94774.72;;;17.42;51.71
50342;BME280;76053;42.682;23.286;2024-03-08T02:21:57;94773.16;;;17.41;51.83
50342;BME280;76053;42.682;23.286;2024-03-08T02:25:02;94775.09;;;17.40;51.78
50342;BME280;76053;42.682;23.286;2024-03-08T02:28:03;94781.28;;;17.41;51.84
50342;BME280;76053;42.682;23.286;2024-03-08T02:31:03;94782.41;;;17.40;51.79
50342;BME280;76053;42.682;23.286;2024-03-08T02:34:03;94780.84;;;17.39;51.64
50342;BME280;76053;42.682;23.286;2024-03-08T02:37:04;94783.56;;;17.39;51.79
50342;BME280;76053;42.682;23.286;2024-03-08T02:40:04;94784.34;;;17.39;51.89
50342;BME280;76053;42.682;23.286;2024-03-08T02:43:05;94786.25;;;17.39;51.88
50342;BME280;76053;42.682;23.286;2024-03-08T02:46:05;94784.72;;;17.38;51.88
50342;BME280;76053;42.682;23.286;2024-03-08T02:49:06;94790.13;;;17.38;51.64
50342;BME280;76053;42.682;23.286;2024-03-08T02:52:06;94785.50;;;17.38;51.59
50342;BME280;76053;42.682;23.286;2024-03-08T02:55:07;94784.72;;;17.38;51.46
50342;BME280;76053;42.682;23.286;2024-03-08T02:58:08;94783.94;;;17.37;51.41
50342;BME280;76053;42.682;23.286;2024-03-08T03:01:09;94788.94;;;17.35;51.43
50342;BME280;76053;42.682;23.286;2024-03-08T03:04:09;94786.66;;;17.37;51.32
50342;BME280;76053;42.682;23.286;2024-03-08T03:07:09;94780.47;;;17.37;51.54
50342;BME280;76053;42.682;23.286;2024-03-08T03:10:10;94785.44;;;17.35;51.36
50342;BME280;76053;42.682;23.286;2024-03-08T03:13:10;94789.72;;;17.36;51.42
50342;BME280;76053;42.682;23.286;2024-03-08T03:16:10;94797.03;;;17.35;51.27
50342;BME280;76053;42.682;23.286;2024-03-08T03:19:11;94794.34;;;17.35;51.29
50342;BME280;76053;42.682;23.286;2024-03-08T03:22:11;94804.34;;;17.35;51.20
50342;BME280;76053;42.682;23.286;2024-03-08T03:25:12;94797.41;;;17.34;51.19
50342;BME280;76053;42.682;23.286;2024-03-08T03:28:12;94794.69;;;17.34;51.07
50342;BME280;76053;42.682;23.286;2024-03-08T03:31:13;94808.97;;;17.34;51.00
50342;BME280;76053;42.682;23.286;2024-03-08T03:34:13;94813.59;;;17.34;50.89
50342;BME280;76053;42.682;23.286;2024-03-08T03:37:14;94811.28;;;17.32;50.86
50342;BME280;76053;42.682;23.286;2024-03-08T03:40:15;94816.31;;;17.34;51.05
50342;BME280;76053;42.682;23.286;2024-03-08T03:43:15;94824.78;;;17.32;50.76
50342;BME280;76053;42.682;23.286;2024-03-08T03:46:15;94821.31;;;17.32;50.83
50342;BME280;76053;42.682;23.286;2024-03-08T03:49:16;94823.25;;;17.31;50.76
50342;BME280;76053;42.682;23.286;2024-03-08T03:52:16;94826.72;;;17.32;50.73
50342;BME280;76053;42.682;23.286;2024-03-08T03:55:17;94829.41;;;17.32;50.72
50342;BME280;76053;42.682;23.286;2024-03-08T03:58:17;94823.25;;;17.31;50.46
50342;BME280;76053;42.682;23.286;2024-03-08T04:01:18;94831.34;;;17.31;50.32
50342;BME280;76053;42.682;23.286;2024-03-08T04:04:18;94830.56;;;17.31;50.26
50342;BME280;76053;42.682;23.286;2024-03-08T04:07:19;94839.81;;;17.30;50.59
50342;BME280;76053;42.682;23.286;2024-03-08T04:10:19;94832.84;;;17.29;50.38
50342;BME280;76053;42.682;23.286;2024-03-08T04:13:19;94842.50;;;17.30;50.35
50342;BME280;76053;42.682;23.286;2024-03-08T04:16:20;94844.44;;;17.29;50.24
50342;BME280;76053;42.682;23.286;2024-03-08T04:19:20;94851.75;;;17.29;50.03
50342;BME280;76053;42.682;23.286;2024-03-08T04:22:21;94852.91;;;17.28;50.36
50342;BME280;76053;42.682;23.286;2024-03-08T04:25:21;94854.06;;;17.27;50.16
50342;BME280;76053;42.682;23.286;2024-03-08T04:28:21;94859.47;;;17.27;50.23
50342;BME280;76053;42.682;23.286;2024-03-08T04:31:22;94858.31;;;17.28;50.00
50342;BME280;76053;42.682;23.286;2024-03-08T04:34:22;94859.47;;;17.27;49.83
50342;BME280;76053;42.682;23.286;2024-03-08T04:37:23;94858.69;;;17.26;50.09
50342;BME280;76053;42.682;23.286;2024-03-08T04:40:23;94872.19;;;17.26;50.02
50342;BME280;76053;42.682;23.286;2024-03-08T04:43:24;94873.75;;;17.27;50.16
50342;BME280;76053;42.682;23.286;2024-03-08T04:46:25;94872.97;;;17.27;50.02
50342;BME280;76053;42.682;23.286;2024-03-08T04:49:26;94871.41;;;17.26;50.01
50342;BME280;76053;42.682;23.286;2024-03-08T04:52:26;94881.44;;;17.25;50.07
50342;BME280;76053;42.682;23.286;2024-03-08T04:55:27;94871.75;;;17.24;50.08
50342;BME280;76053;42.682;23.286;2024-03-08T04:58:27;94872.53;;;17.25;49.86
50342;BME280;76053;42.682;23.286;2024-03-08T05:01:28;94868.66;;;17.22;50.03
50342;BME280;76053;42.682;23.286;2024-03-08T05:04:28;94882.97;;;17.23;50.04
50342;BME280;76053;42.682;23.286;2024-03-08T05:07:28;94890.28;;;17.22;50.06
50342;BME280;76053;42.682;23.286;2024-03-08T05:10:29;94883.31;;;17.21;49.99
50342;BME280;76053;42.682;23.286;2024-03-08T05:13:30;94891.84;;;17.23;50.02
50342;BME280;76053;42.682;23.286;2024-03-08T05:16:30;94891.41;;;17.21;50.03
50342;BME280;76053;42.682;23.286;2024-03-08T05:19:31;94896.81;;;17.21;50.05
50342;BME280;76053;42.682;23.286;2024-03-08T05:22:31;94903.00;;;17.21;50.14
50342;BME280;76053;42.682;23.286;2024-03-08T05:25:32;94901.44;;;17.20;50.07
50342;BME280;76053;42.682;23.286;2024-03-08T05:28:32;94911.47;;;17.20;49.95
50342;BME280;76053;42.682;23.286;2024-03-08T05:31:46;94914.91;;;17.17;50.06
50342;BME280;76053;42.682;23.286;2024-03-08T05:34:47;94922.25;;;17.20;50.08
50342;BME280;76053;42.682;23.286;2024-03-08T05:37:47;94923.41;;;17.19;50.20
50342;BME280;76053;42.682;23.286;2024-03-08T05:40:47;94922.25;;;17.20;50.13
50342;BME280;76053;42.682;23.286;2024-03-08T05:43:48;94930.38;;;17.20;50.21
50342;BME280;76053;42.682;23.286;2024-03-08T05:46:48;94929.22;;;17.21;50.19
50342;BME280;76053;42.682;23.286;2024-03-08T05:49:48;94938.13;;;17.21;50.10
50342;BME280;76053;42.682;23.286;2024-03-08T05:52:49;94945.09;;;17.23;50.11
50342;BME280;76053;42.682;23.286;2024-03-08T05:55:49;94943.16;;;17.23;50.05
50342;BME280;76053;42.682;23.286;2024-03-08T05:58:50;94953.19;;;17.23;50.06
50342;BME280;76053;42.682;23.286;2024-03-08T06:01:50;94952.03;;;17.23;49.94
50342;BME280;76053;42.682;23.286;2024-03-08T06:04:51;94959.38;;;17.23;49.89
50342;BME280;76053;42.682;23.286;2024-03-08T06:07:51;94953.97;;;17.23;50.00
50342;BME280;76053;42.682;23.286;2024-03-08T06:10:51;94956.66;;;17.23;49.95
50342;BME280;76053;42.682;23.286;2024-03-08T06:13:52;94968.22;;;17.23;50.01
50342;BME280;76053;42.682;23.286;2024-03-08T06:16:52;94970.94;;;17.23;49.91
50342;BME280;76053;42.682;23.286;2024-03-08T06:19:53;94972.88;;;17.23;50.01
50342;BME280;76053;42.682;23.286;2024-03-08T06:22:53;94969.41;;;17.23;49.93
50342;BME280;76053;42.682;23.286;2024-03-08T06:25:53;94967.84;;;17.21;50.00
50342;BME280;76053;42.682;23.286;2024-03-08T06:28:54;94972.09;;;17.23;49.97
50342;BME280;76053;42.682;23.286;2024-03-08T06:31:55;94972.88;;;17.23;50.08
50342;BME280;76053;42.682;23.286;2024-03-08T06:34:55;94967.47;;;17.23;49.86
50342;BME280;76053;42.682;23.286;2024-03-08T06:37:55;94972.50;;;17.25;50.09
50342;BME280;76053;42.682;23.286;2024-03-08T06:40:56;94975.19;;;17.25;49.93
50342;BME280;76053;42.682;23.286;2024-03-08T06:43:56;94981.03;;;17.27;49.91
50342;BME280;76053;42.682;23.286;2024-03-08T06:46:56;94980.66;;;17.28;49.71
50342;BME280;76053;42.682;23.286;2024-03-08T06:49:57;94986.06;;;17.28;50.16
50342;BME280;76053;42.682;23.286;2024-03-08T06:52:57;94977.59;;;17.30;49.81
50342;BME280;76053;42.682;23.286;2024-03-08T06:55:58;94980.34;;;17.33;49.90
50342;BME280;76053;42.682;23.286;2024-03-08T06:58:58;94984.19;;;17.32;49.95
50342;BME280;76053;42.682;23.286;2024-03-08T07:01:59;94992.34;;;17.36;49.62
50342;BME280;76053;42.682;23.286;2024-03-08T07:04:59;94990.44;;;17.36;49.87
50342;BME280;76053;42.682;23.286;2024-03-08T07:08:00;94986.19;;;17.39;49.63
50342;BME280;76053;42.682;23.286;2024-03-08T07:11:00;94983.16;;;17.40;49.75
50342;BME280;76053;42.682;23.286;2024-03-08T07:14:00;94991.69;;;17.42;49.73
50342;BME280;76053;42.682;23.286;2024-03-08T07:17:01;94991.72;;;17.46;49.60
50342;BME280;76053;42.682;23.286;2024-03-08T07:20:01;94992.94;;;17.48;49.59
50342;BME280;76053;42.682;23.286;2024-03-08T07:23:01;94998.72;;;17.50;49.67
50342;BME280;76053;42.682;23.286;2024-03-08T07:26:02;94994.88;;;17.51;49.76
50342;BME280;76053;42.682;23.286;2024-03-08T07:29:02;95000.69;;;17.53;49.71
50342;BME280;76053;42.682;23.286;2024-03-08T07:32:03;95000.34;;;17.55;49.62
50342;BME280;76053;42.682;23.286;2024-03-08T07:35:04;95003.81;;;17.55;49.58
50342;BME280;76053;42.682;23.286;2024-03-08T07:38:08;95008.09;;;17.56;49.55
50342;BME280;76053;42.682;23.286;2024-03-08T07:41:08;95008.88;;;17.57;49.60
50342;BME280;76053;42.682;23.286;2024-03-08T07:44:09;95012.00;;;17.59;49.81
50342;BME280;76053;42.682;23.286;2024-03-08T07:47:09;95009.72;;;17.61;49.83
50342;BME280;76053;42.682;23.286;2024-03-08T07:50:10;95009.75;;;17.64;49.48
50342;BME280;76053;42.682;23.286;2024-03-08T07:53:10;95010.59;;;17.69;49.66
50342;BME280;76053;42.682;23.286;2024-03-08T07:56:11;95007.53;;;17.70;49.45
50342;BME280;76053;42.682;23.286;2024-03-08T07:59:11;95008.72;;;17.73;49.64
50342;BME280;76053;42.682;23.286;2024-03-08T08:02:11;95012.97;;;17.74;49.69
50342;BME280;76053;42.682;23.286;2024-03-08T08:05:12;95001.44;;;17.77;49.68
50342;BME280;76053;42.682;23.286;2024-03-08T08:08:12;95017.31;;;17.78;49.57
50342;BME280;76053;42.682;23.286;2024-03-08T08:11:12;95010.72;;;17.79;49.59
50342;BME280;76053;42.682;23.286;2024-03-08T08:14:13;95011.94;;;17.82;49.56
50342;BME280;76053;42.682;23.286;2024-03-08T08:17:13;95006.13;;;17.83;49.63
50342;BME280;76053;42.682;23.286;2024-03-08T08:20:14;94996.94;;;17.88;49.62
50342;BME280;76053;42.682;23.286;2024-03-08T08:23:14;95002.03;;;17.93;49.38
50342;BME280;76053;42.682;23.286;2024-03-08T08:26:15;95007.88;;;17.98;49.37
50342;BME280;76053;42.682;23.286;2024-03-08T08:29:15;95004.44;;;18.01;49.39
50342;BME280;76053;42.682;23.286;2024-03-08T08:32:15;95006.06;;;18.06;49.37
50342;BME280;76053;42.682;23.286;2024-03-08T08:35:16;95018.47;;;18.11;49.34
50342;BME280;76053;42.682;23.286;2024-03-08T08:38:16;95008.06;;;18.13;49.42
50342;BME280;76053;42.682;23.286;2024-03-08T08:41:17;95003.06;;;18.15;49.14
50342;BME280;76053;42.682;23.286;2024-03-08T08:44:17;94996.91;;;18.18;49.30
50342;BME280;76053;42.682;23.286;2024-03-08T08:47:17;94994.22;;;18.18;49.08
50342;BME280;76053;42.682;23.286;2024-03-08T08:50:18;94990.75;;;18.21;49.07
50342;BME280;76053;42.682;23.286;2024-03-08T08:53:18;94993.88;;;18.23;48.96
50342;BME280;76053;42.682;23.286;2024-03-08T08:56:19;94990.78;;;18.24;48.97
50342;BME280;76053;42.682;23.286;2024-03-08T08:59:19;94995.06;;;18.25;48.93
50342;BME280;76053;42.682;23.286;2024-03-08T09:02:20;94988.16;;;18.28;48.95
50342;BME280;76053;42.682;23.286;2024-03-08T09:05:20;94988.16;;;18.28;48.92
50342;BME280;76053;42.682;23.286;2024-03-08T09:08:20;94995.88;;;18.29;48.75
50342;BME280;76053;42.682;23.286;2024-03-08T09:11:21;94987.38;;;18.27;48.62
50342;BME280;76053;42.682;23.286;2024-03-08T09:14:24;94993.16;;;18.29;48.75
50342;BME280;76053;42.682;23.286;2024-03-08T09:17:24;94986.25;;;18.32;48.64
50342;BME280;76053;42.682;23.286;2024-03-08T09:20:25;94989.34;;;18.34;48.61
50342;BME280;76053;42.682;23.286;2024-03-08T09:23:25;94987.84;;;18.36;48.47
50342;BME280;76053;42.682;23.286;2024-03-08T09:26:26;94980.13;;;18.38;48.32
50342;BME280;76053;42.682;23.286;2024-03-08T09:29:26;94977.03;;;18.40;48.41
50342;BME280;76053;42.682;23.286;2024-03-08T09:32:26;94985.59;;;18.42;48.22
50342;BME280;76053;42.682;23.286;2024-03-08T09:35:27;94976.69;;;18.41;48.18
50342;BME280;76053;42.682;23.286;2024-03-08T09:38:27;94984.03;;;18.41;48.25
50342;BME280;76053;42.682;23.286;2024-03-08T09:41:27;94979.38;;;18.41;48.07
50342;BME280;76053;42.682;23.286;2024-03-08T09:44:28;94984.03;;;18.44;47.99
50342;BME280;76053;42.682;23.286;2024-03-08T09:47:28;94976.34;;;18.46;47.96
50342;BME280;76053;42.682;23.286;2024-03-08T09:50:29;94979.44;;;18.48;47.95
50342;BME280;76053;42.682;23.286;2024-03-08T09:53:30;94988.75;;;18.51;47.81
50342;BME280;76053;42.682;23.286;2024-03-08T09:56:35;94979.50;;;18.52;47.60
50342;BME280;76053;42.682;23.286;2024-03-08T09:59:36;94988.81;;;18.55;47.58
50342;BME280;76053;42.682;23.286;2024-03-08T10:02:36;94986.53;;;18.57;47.51
50342;BME280;76053;42.682;23.286;2024-03-08T10:05:36;94986.91;;;18.59;47.38
50342;BME280;76053;42.682;23.286;2024-03-08T10:08:37;94986.19;;;18.62;47.54
50342;BME280;76053;42.682;23.286;2024-03-08T10:11:37;94977.69;;;18.63;47.29
50342;BME280;76053;42.682;23.286;2024-03-08T10:14:39;94978.47;;;18.64;47.27
50342;BME280;76053;42.682;23.286;2024-03-08T10:17:40;94973.81;;;18.64;47.22
50342;BME280;76053;42.682;23.286;2024-03-08T10:20:40;94983.88;;;18.64;47.27
50342;BME280;76053;42.682;23.286;2024-03-08T10:23:41;94985.03;;;18.63;47.15
50342;BME280;76053;42.682;23.286;2024-03-08T10:26:41;94982.34;;;18.63;47.19
50342;BME280;76053;42.682;23.286;2024-03-08T10:29:52;94979.56;;;18.59;46.93
50342;BME280;76053;42.682;23.286;2024-03-08T10:32:53;94975.38;;;18.65;47.12
50342;BME280;76053;42.682;23.286;2024-03-08T10:35:53;94974.25;;;18.66;46.95
50342;BME280;76053;42.682;23.286;2024-03-08T10:38:56;94970.78;;;18.69;46.98
50342;BME280;76053;42.682;23.286;2024-03-08T10:41:58;94966.16;;;18.73;46.83
50342;BME280;76053;42.682;23.286;2024-03-08T10:45:07;94961.94;;;18.76;46.73
50342;BME280;76053;42.682;23.286;2024-03-08T10:48:29;94963.47;;;18.73;46.66
50342;BME280;76053;42.682;23.286;2024-03-08T10:51:30;94957.69;;;18.78;46.68
50342;BME280;76053;42.682;23.286;2024-03-08T10:54:32;94960.81;;;18.80;46.63
50342;BME280;76053;42.682;23.286;2024-03-08T10:57:35;94950.78;;;18.81;46.56
50342;BME280;76053;42.682;23.286;2024-03-08T11:00:36;94956.56;;;18.79;46.54
50342;BME280;76053;42.682;23.286;2024-03-08T11:03:48;94952.25;;;18.75;46.30
50342;BME280;76053;42.682;23.286;2024-03-08T11:06:50;94950.75;;;18.77;46.33
50342;BME280;76053;42.682;23.286;2024-03-08T11:09:51;94930.63;;;18.78;46.31
50342;BME280;76053;42.682;23.286;2024-03-08T11:12:51;94931.81;;;18.81;46.30
50342;BME280;76053;42.682;23.286;2024-03-08T11:15:52;94926.78;;;18.83;46.35
50342;BME280;76053;42.682;23.286;2024-03-08T11:22:21;94923.72;;;18.84;46.15
50342;BME280;76053;42.682;23.286;2024-03-08T11:28:32;94931.50;;;18.93;46.30
50342;BME280;76053;42.682;23.286;2024-03-08T11:31:33;94928.44;;;18.95;46.35
50342;BME280;76053;42.682;23.286;2024-03-08T11:34:34;94920.31;;;18.95;46.23
50342;BME280;76053;42.682;23.286;2024-03-08T11:37:34;94922.22;;;18.94;46.38
50342;BME280;76053;42.682;23.286;2024-03-08T11:40:35;94916.03;;;18.93;46.36
50342;BME280;76053;42.682;23.286;2024-03-08T11:43:36;94914.88;;;18.95;46.35
50342;BME280;76053;42.682;23.286;2024-03-08T11:46:36;94921.44;;;18.93;46.12
50342;BME280;76053;42.682;23.286;2024-03-08T11:49:37;94914.88;;;18.95;46.27
50342;BME280;76053;42.682;23.286;2024-03-08T11:52:38;94911.41;;;18.94;46.04
50342;BME280;76053;42.682;23.286;2024-03-08T11:55:38;94909.09;;;18.96;46.23
50342;BME280;76053;42.682;23.286;2024-03-08T11:58:39;94909.09;;;18.96;46.01
50342;BME280;76053;42.682;23.286;2024-03-08T12:01:40;94902.13;;;18.95;46.08
50342;BME280;76053;42.682;23.286;2024-03-08T12:04:41;94897.06;;;18.93;46.02
50342;BME280;76053;42.682;23.286;2024-03-08T12:07:41;94910.63;;;18.93;46.07
50342;BME280;76053;42.682;23.286;2024-03-08T12:10:41;94903.25;;;18.90;46.00
50342;BME280;76053;42.682;23.286;2024-03-08T12:13:42;94908.25;;;18.88;45.93
50342;BME280;76053;42.682;23.286;2024-03-08T12:16:42;94900.13;;;18.85;45.98
50342;BME280;76053;42.682;23.286;2024-03-08T12:19:46;94912.88;;;18.84;45.96
50342;BME280;76053;42.682;23.286;2024-03-08T12:22:47;94902.03;;;18.84;46.13
50342;BME280;76053;42.682;23.286;2024-03-08T12:25:47;94898.56;;;18.84;46.45
50342;BME280;76053;42.682;23.286;2024-03-08T12:28:48;94901.25;;;18.84;46.41
50342;BME280;76053;42.682;23.286;2024-03-08T12:31:51;94895.84;;;18.84;46.55
50342;BME280;76053;42.682;23.286;2024-03-08T12:34:52;94894.28;;;18.83;46.51
50342;BME280;76053;42.682;23.286;2024-03-08T12:37:54;94893.53;;;18.82;46.52
50342;BME280;76053;42.682;23.286;2024-03-08T12:40:58;94895.03;;;18.80;46.54
50342;BME280;76053;42.682;23.286;2024-03-08T12:43:58;94879.94;;;18.79;46.54
50342;BME280;76053;42.682;23.286;2024-03-08T12:46:59;94883.84;;;18.78;46.67
50342;BME280;76053;42.682;23.286;2024-03-08T12:49:59;94876.47;;;18.78;46.58
50342;BME280;76053;42.682;23.286;2024-03-08T12:52:59;94881.88;;;18.78;46.71
50342;BME280;76053;42.682;23.286;2024-03-08T12:56:00;94878.81;;;18.80;46.61
50342;BME280;76053;42.682;23.286;2024-03-08T12:59:01;94879.56;;;18.80;46.60
50342;BME280;76053;42.682;23.286;2024-03-08T13:02:01;94881.88;;;18.78;46.68
50342;BME280;76053;42.682;23.286;2024-03-08T13:05:02;94881.13;;;18.78;46.67
50342;BME280;76053;42.682;23.286;2024-03-08T13:08:02;94877.63;;;18.77;46.78
50342;BME280;76053;42.682;23.286;2024-03-08T13:11:03;94877.63;;;18.77;46.73
50342;BME280;76053;42.682;23.286;2024-03-08T13:14:04;94880.34;;;18.77;46.65
50342;BME280;76053;42.682;23.286;2024-03-08T13:17:04;94876.84;;;18.77;46.65
50342;BME280;76053;42.682;23.286;2024-03-08T13:20:05;94881.50;;;18.76;46.78
50342;BME280;76053;42.682;23.286;2024-03-08T13:23:06;94877.63;;;18.77;46.78
50342;BME280;76053;42.682;23.286;2024-03-08T13:26:10;94877.63;;;18.77;46.64
50342;BME280;76053;42.682;23.286;2024-03-08T13:29:11;94877.63;;;18.77;46.80
50342;BME280;76053;42.682;23.286;2024-03-08T13:32:11;94872.22;;;18.77;46.60
50342;BME280;76053;42.682;23.286;2024-03-08T13:35:12;94875.72;;;18.78;46.82
50342;BME280;76053;42.682;23.286;2024-03-08T13:38:12;94883.84;;;18.78;46.73
50342;BME280;76053;42.682;23.286;2024-03-08T13:41:13;94876.47;;;18.78;46.73
50342;BME280;76053;42.682;23.286;2024-03-08T13:44:14;94878.81;;;18.80;46.64
50342;BME280;76053;42.682;23.286;2024-03-08T13:47:18;94869.13;;;18.79;46.78
50342;BME280;76053;42.682;23.286;2024-03-08T13:50:18;94876.09;;;18.80;46.53
50342;BME280;76053;42.682;23.286;2024-03-08T13:53:18;94878.44;;;18.81;46.60
50342;BME280;76053;42.682;23.286;2024-03-08T13:56:19;94874.56;;;18.82;46.59
50342;BME280;76053;42.682;23.286;2024-03-08T13:59:20;94875.31;;;18.83;46.61
50342;BME280;76053;42.682;23.286;2024-03-08T14:02:20;94868.75;;;18.84;46.60
50342;BME280;76053;42.682;23.286;2024-03-08T14:05:21;94868.41;;;18.85;46.52
50342;BME280;76053;42.682;23.286;2024-03-08T14:08:21;94869.53;;;18.84;46.49
50342;BME280;76053;42.682;23.286;2024-03-08T14:11:21;94869.19;;;18.86;46.64
50342;BME280;76053;42.682;23.286;2024-03-08T14:14:22;94871.09;;;18.85;46.48
50342;BME280;76053;42.682;23.286;2024-03-08T14:17:22;94874.59;;;18.86;46.48
50342;BME280;76053;42.682;23.286;2024-03-08T14:20:23;94871.88;;;18.86;46.52
50342;BME280;76053;42.682;23.286;2024-03-08T14:23:24;94871.09;;;18.85;46.41
50342;BME280;76053;42.682;23.286;2024-03-08T14:26:24;94868.41;;;18.85;46.49
50342;BME280;76053;42.682;23.286;2024-03-08T14:29:25;94873.03;;;18.85;46.74
50342;BME280;76053;42.682;23.286;2024-03-08T14:32:26;94871.47;;;18.84;46.52
50342;BME280;76053;42.682;23.286;2024-03-08T14:35:26;94870.31;;;18.81;46.53
50342;BME280;76053;42.682;23.286;2024-03-08T14:38:27;94868.75;;;18.80;46.48
50342;BME280;76053;42.682;23.286;2024-03-08T14:41:27;94871.03;;;18.78;46.48
50342;BME280;76053;42.682;23.286;2024-03-08T14:44:27;94867.94;;;18.76;46.50
50342;BME280;76053;42.682;23.286;2024-03-08T14:47:28;94875.28;;;18.76;46.36
50342;BME280;76053;42.682;23.286;2024-03-08T14:50:28;94877.22;;;18.75;46.41
50342;BME280;76053;42.682;23.286;2024-03-08T14:53:29;94874.09;;;18.73;46.49
50342;BME280;76053;42.682;23.286;2024-03-08T14:56:29;94877.19;;;18.72;46.48
50342;BME280;76053;42.682;23.286;2024-03-08T14:59:29;94884.13;;;18.69;46.39
50342;BME280;76053;42.682;23.286;2024-03-08T15:02:30;94877.94;;;18.69;46.32
50342;BME280;76053;42.682;23.286;2024-03-08T15:05:30;94880.25;;;18.67;46.35
50342;BME280;76053;42.682;23.286;2024-03-08T15:08:31;94884.47;;;18.64;46.49
50342;BME280;76053;42.682;23.286;2024-03-08T15:11:31;94886.81;;;18.62;46.41
50342;BME280;76053;42.682;23.286;2024-03-08T15:14:31;94887.16;;;18.61;46.50
50342;BME280;76053;42.682;23.286;2024-03-08T15:17:32;94892.94;;;18.59;46.48
50342;BME280;76053;42.682;23.286;2024-03-08T15:20:32;94888.28;;;18.56;46.46
50342;BME280;76053;42.682;23.286;2024-03-08T15:23:36;94892.16;;;18.55;46.35
50342;BME280;76053;42.682;23.286;2024-03-08T15:26:36;94890.94;;;18.53;46.43
50342;BME280;76053;42.682;23.286;2024-03-08T15:29:37;94895.94;;;18.50;46.45
50342;BME280;76053;42.682;23.286;2024-03-08T15:32:37;94894.75;;;18.48;46.55
50342;BME280;76053;42.682;23.286;2024-03-08T15:35:38;94898.63;;;18.47;46.53
50342;BME280;76053;42.682;23.286;2024-03-08T15:38:38;94894.72;;;18.44;46.62
50342;BME280;76053;42.682;23.286;2024-03-08T15:41:40;94898.19;;;18.41;46.38
50342;BME280;76053;42.682;23.286;2024-03-08T15:44:40;94897.78;;;18.39;46.45
50342;BME280;76053;42.682;23.286;2024-03-08T15:47:40;94907.03;;;18.38;46.59
50342;BME280;76053;42.682;23.286;2024-03-08T15:50:41;94909.34;;;18.36;46.53